LFPN 280930Z AUTO 25010KT 220V280 9999 FEW026 SCT054 22/15 Q0999 TEMPO SCT020CB BKN030

ElémentsDécodage
LFPN Station météo située sur l'aérodrome de TOUSSUS-LE-NOBLE
280930Z émis le 28 du mois à 09h30 UTC
AUTO Bulletin édité par un automate
25010KT vent du 250°, 10 noeuds
220V280 vent de direction variable entre 220° et 280°
9999 visibilité horizontale supérieure à 10 Km
FEW026 nuages rares (1/8 à 2/8) à 2600 pieds
SCT054 nuages épars (3/8 à 4/8) à 5400 pieds
22/15 température 22°C, point de rosée 15°C
 soit une humidité relative de 65%
Q0999 la pression au niveau de la mer (QNH) est de 999 hPa
TEMPO fluctuation temporaire prévue
SCT020CB nuages épars (3/8 à 4/8) à 2000 pieds
 présence de cumulonimbus
BKN030 nuages morcelés (5/8 à 7/8) à 3000 pieds